Time;durP1;ratioP1;P1;durP2;ratioP2;P2;SDS_P1;SDS_P2;PMS_P1;PMS_P2;Temp;Humidity;BMP_temperature;BMP_pressure;BME280_temperature;BME280_humidity;BME280_pressure;Samples;Min_cycle;Max_cycle;Signal;HPM_P1;HPM_P2
2021/06/04 00:02:05;;;;;;;17.37;16.13;;;20.20;99.90;;;;;;5032005;28;20456;-64
2021/06/04 00:04:31;;;;;;;16.70;15.57;;;20.20;99.90;;;;;;5031953;28;20448;-63
2021/06/04 00:06:57;;;;;;;16.10;15.20;;;20.20;99.90;;;;;;5032455;28;20963;-63
2021/06/04 00:09:24;;;;;;;16.40;15.40;;;20.10;99.90;;;;;;5032171;28;20452;-63
2021/06/04 00:11:52;;;;;;;16.63;15.47;;;20.10;99.90;;;;;;5031329;28;20441;-63
2021/06/04 00:14:21;;;;;;;15.80;14.50;;;20.10;99.90;;;;;;5031371;28;21076;-63
2021/06/04 00:16:52;;;;;;;15.60;14.60;;;20.00;99.90;;;;;;5031897;28;20444;-63
2021/06/04 00:19:21;;;;;;;16.10;15.00;;;20.00;99.90;;;;;;5031887;28;20952;-63
2021/06/04 00:21:51;;;;;;;16.70;15.60;;;20.00;99.90;;;;;;5074051;23;20535;-60
2021/06/04 00:24:18;;;;;;;15.50;14.40;;;20.00;99.90;;;;;;5031509;28;20442;-62
2021/06/04 00:26:47;;;;;;;15.10;14.20;;;20.00;99.90;;;;;;5031612;28;20445;-61
2021/06/04 00:29:14;;;;;;;15.07;13.97;;;20.00;99.90;;;;;;5031597;28;20449;-62
2021/06/04 00:31:41;;;;;;;15.97;14.97;;;20.00;99.90;;;;;;5031355;28;20623;-59
2021/06/04 00:34:11;;;;;;;15.47;14.57;;;20.00;99.90;;;;;;5031170;28;20482;-63
2021/06/04 00:36:38;;;;;;;15.67;14.60;;;20.00;99.90;;;;;;5031556;28;20970;-60
2021/06/04 00:39:06;;;;;;;16.00;15.00;;;20.00;99.90;;;;;;5031497;28;20819;-62
2021/06/04 00:41:36;;;;;;;17.10;15.90;;;20.00;99.90;;;;;;5031308;28;20472;-61
2021/06/04 00:44:04;;;;;;;16.43;15.20;;;20.00;99.90;;;;;;5031295;28;20464;-62
2021/06/04 00:46:32;;;;;;;17.13;16.07;;;20.00;99.90;;;;;;5031506;28;20456;-62
2021/06/04 00:48:58;;;;;;;16.20;15.07;;;20.00;99.90;;;;;;5031453;28;20464;-61
2021/06/04 00:51:31;;;;;;;17.53;16.33;;;20.00;99.90;;;;;;5031461;28;20465;-62
2021/06/04 00:53:58;;;;;;;16.33;15.23;;;20.10;99.90;;;;;;5031045;28;20488;-62
2021/06/04 00:56:28;;;;;;;17.03;15.87;;;20.10;99.90;;;;;;5031370;28;20507;-60
2021/06/04 00:58:55;;;;;;;17.50;16.00;;;20.10;99.90;;;;;;5031334;28;20441;-61
2021/06/04 01:01:25;;;;;;;16.93;15.43;;;20.10;99.90;;;;;;5031101;28;20461;-61
2021/06/04 01:03:54;;;;;;;16.97;15.80;;;20.10;99.90;;;;;;5031163;28;20801;-61
2021/06/04 01:06:31;;;;;;;15.83;14.90;;;20.10;99.90;;;;;;5031407;28;20441;-61
2021/06/04 01:09:22;;;;;;;15.83;14.93;;;20.00;99.90;;;;;;5031099;28;20429;-60
2021/06/04 01:11:58;;;;;;;17.17;15.73;;;20.10;99.90;;;;;;5031211;28;20496;-62
2021/06/04 01:14:29;;;;;;;15.93;14.30;;;20.00;99.90;;;;;;5030891;28;20542;-61
2021/06/04 01:17:02;;;;;;;17.20;16.10;;;20.00;99.90;;;;;;5031134;28;20440;-61
2021/06/04 01:19:38;;;;;;;17.20;16.20;;;20.10;99.90;;;;;;5031176;28;20449;-61
2021/06/04 01:22:08;;;;;;;17.57;16.33;;;20.00;99.90;;;;;;5030885;28;20534;-61
2021/06/04 01:24:48;;;;;;;16.63;15.23;;;20.00;99.90;;;;;;5033174;28;20506;-62
2021/06/04 01:27:21;;;;;;;17.70;16.37;;;19.90;99.90;;;;;;5034667;28;20455;-63
2021/06/04 01:29:52;;;;;;;16.33;15.17;;;19.90;99.90;;;;;;5034698;28;20453;-62
2021/06/04 01:32:21;;;;;;;17.93;16.53;;;19.90;99.90;;;;;;5034722;28;20959;-62
2021/06/04 01:34:52;;;;;;;18.73;17.33;;;19.80;99.90;;;;;;5034307;28;20484;-62
2021/06/04 01:37:22;;;;;;;19.33;17.83;;;19.80;99.90;;;;;;5034735;28;20445;-62
2021/06/04 01:39:51;;;;;;;21.40;19.80;;;19.80;99.90;;;;;;5034339;28;20499;-61
2021/06/04 01:42:22;;;;;;;19.37;17.97;;;19.80;99.90;;;;;;5034483;28;20797;-61
2021/06/04 01:44:52;;;;;;;17.00;15.90;;;19.80;99.90;;;;;;5034324;28;20805;-61
2021/06/04 01:47:22;;;;;;;16.80;15.50;;;19.80;99.90;;;;;;5034416;28;20440;-60
2021/06/04 01:49:53;;;;;;;16.90;15.70;;;19.80;99.90;;;;;;5034452;28;20450;-61
2021/06/04 01:52:24;;;;;;;17.60;16.27;;;19.80;99.90;;;;;;5034325;28;20476;-61
2021/06/04 01:54:54;;;;;;;16.70;15.70;;;19.80;99.90;;;;;;5034053;28;20476;-62
2021/06/04 01:57:25;;;;;;;17.63;16.37;;;19.80;99.90;;;;;;5034014;28;20449;-62
2021/06/04 01:59:52;;;;;;;18.67;17.37;;;19.80;99.90;;;;;;5034194;28;20452;-61
2021/06/04 02:02:21;;;;;;;18.33;17.10;;;19.70;99.90;;;;;;5034057;28;21010;-62
2021/06/04 02:04:52;;;;;;;15.70;14.70;;;19.70;99.90;;;;;;5033946;28;20464;-62
2021/06/04 02:07:25;;;;;;;19.10;17.50;;;19.80;99.90;;;;;;5034139;28;20958;-63
2021/06/04 02:09:52;;;;;;;18.47;17.13;;;19.80;99.90;;;;;;5033917;28;21064;-62
2021/06/04 02:12:18;;;;;;;18.50;17.23;;;19.70;99.90;;;;;;5033655;28;20448;-61
2021/06/04 02:14:49;;;;;;;18.40;17.10;;;19.70;99.90;;;;;;5033581;28;20481;-61
2021/06/04 02:17:31;;;;;;;18.80;17.30;;;19.70;99.90;;;;;;5033876;28;20452;-61
2021/06/04 02:20:08;;;;;;;20.43;18.93;;;19.70;99.90;;;;;;5033673;28;20445;-60
2021/06/04 02:22:47;;;;;;;20.20;18.80;;;19.60;99.90;;;;;;5033498;28;20457;-61
2021/06/04 02:25:19;;;;;;;20.23;18.83;;;19.60;99.90;;;;;;5033505;28;20460;-61
2021/06/04 02:27:51;;;;;;;20.90;19.03;;;19.60;99.90;;;;;;5033971;28;20800;-61
2021/06/04 02:30:24;;;;;;;21.27;19.57;;;19.60;99.90;;;;;;5033547;28;20796;-61
2021/06/04 02:32:55;;;;;;;19.40;18.00;;;19.60;99.90;;;;;;5033491;28;20441;-62
2021/06/04 02:35:29;;;;;;;20.03;18.37;;;19.60;99.90;;;;;;5032399;28;20449;-62
2021/06/04 02:37:58;;;;;;;18.73;17.43;;;19.60;99.90;;;;;;5033556;28;20441;-62
2021/06/04 02:40:29;;;;;;;18.60;17.10;;;19.70;99.90;;;;;;5033198;28;20472;-63
2021/06/04 02:42:59;;;;;;;20.00;18.50;;;19.70;99.90;;;;;;5033577;28;20441;-62
2021/06/04 02:45:30;;;;;;;18.50;17.10;;;19.60;99.90;;;;;;5033160;28;20531;-62
2021/06/04 02:48:00;;;;;;;22.87;21.17;;;19.60;99.90;;;;;;5033348;28;20457;-62
2021/06/04 02:50:31;;;;;;;23.20;21.00;;;19.50;99.90;;;;;;5033178;28;20832;-62
2021/06/04 02:53:18;;;;;;;22.10;20.30;;;19.50;99.90;;;;;;5033113;28;20854;-63
2021/06/04 02:56:03;;;;;;;20.77;19.13;;;19.50;99.90;;;;;;5033299;28;20444;-62
2021/06/04 02:58:29;;;;;;;19.70;18.30;;;19.50;99.90;;;;;;5033011;28;20445;-62
2021/06/04 03:00:57;;;;;;;21.57;19.90;;;19.50;99.90;;;;;;5032955;28;20833;-62
2021/06/04 03:03:23;;;;;;;20.00;18.47;;;19.50;99.90;;;;;;5032755;28;20453;-62
2021/06/04 03:05:50;;;;;;;21.17;19.33;;;19.60;99.90;;;;;;5032911;28;20445;-62
2021/06/04 03:08:19;;;;;;;21.13;19.43;;;19.60;99.90;;;;;;5032931;28;20483;-62
2021/06/04 03:10:50;;;;;;;22.10;20.10;;;19.60;99.90;;;;;;5032822;28;20476;-62
2021/06/04 03:13:22;;;;;;;19.87;18.27;;;19.50;99.90;;;;;;5032462;28;20484;-62
2021/06/04 03:15:51;;;;;;;21.17;19.67;;;19.50;99.90;;;;;;5032869;28;20441;-62
2021/06/04 03:18:22;;;;;;;19.50;18.00;;;19.50;99.90;;;;;;5032681;28;20445;-62
2021/06/04 03:20:49;;;;;;;21.43;19.83;;;19.50;99.90;;;;;;5032483;28;20508;-62
2021/06/04 03:23:18;;;;;;;19.90;18.50;;;19.50;99.90;;;;;;5032377;28;20448;-62
2021/06/04 03:25:49;;;;;;;20.87;19.17;;;19.50;99.90;;;;;;5032420;28;20441;-62
2021/06/04 03:28:18;;;;;;;17.73;16.33;;;19.50;99.90;;;;;;5032461;28;20441;-63
2021/06/04 03:30:46;;;;;;;21.00;19.40;;;19.60;99.90;;;;;;5032312;28;20469;-62
2021/06/04 03:33:16;;;;;;;22.10;20.50;;;19.50;99.90;;;;;;5032281;28;20488;-60
2021/06/04 03:35:53;;;;;;;22.60;20.80;;;19.50;99.90;;;;;;5031900;28;20456;-60
2021/06/04 03:38:20;;;;;;;19.30;17.90;;;19.50;99.90;;;;;;5032052;28;20448;-62
2021/06/04 03:40:47;;;;;;;21.67;20.13;;;19.60;99.90;;;;;;5032083;28;20476;-62
2021/06/04 03:43:20;;;;;;;23.50;21.60;;;19.60;99.90;;;;;;5031884;28;20445;-62
2021/06/04 03:45:46;;;;;;;23.03;21.27;;;19.60;99.90;;;;;;5032093;28;20441;-60
2021/06/04 03:48:17;;;;;;;21.03;19.50;;;19.60;99.90;;;;;;5031945;28;20452;-61
2021/06/04 03:50:46;;;;;;;20.53;18.93;;;19.60;99.90;;;;;;5032135;28;20820;-62
2021/06/04 03:53:18;;;;;;;21.70;20.00;;;19.70;99.90;;;;;;5031463;28;20511;-61
2021/06/04 03:55:47;;;;;;;20.60;19.10;;;19.70;99.90;;;;;;5031671;28;20472;-60
2021/06/04 03:58:14;;;;;;;21.50;19.90;;;19.70;99.90;;;;;;5031670;28;20449;-63
2021/06/04 04:00:43;;;;;;;18.87;17.47;;;19.70;99.90;;;;;;5031698;28;20465;-63
2021/06/04 04:03:11;;;;;;;19.43;18.13;;;19.70;99.90;;;;;;5031745;28;20448;-62
2021/06/04 04:05:38;;;;;;;19.67;18.17;;;19.80;99.90;;;;;;5031448;28;20460;-63
2021/06/04 04:08:07;;;;;;;20.03;18.10;;;19.80;99.90;;;;;;5031595;28;20445;-63
2021/06/04 04:10:34;;;;;;;19.93;18.53;;;19.80;99.90;;;;;;5031429;28;20480;-62
2021/06/04 04:13:01;;;;;;;21.47;19.87;;;19.80;99.90;;;;;;5031423;28;20471;-63
2021/06/04 04:15:28;;;;;;;21.40;19.70;;;19.80;99.90;;;;;;5031244;28;20449;-63
2021/06/04 04:17:58;;;;;;;21.63;19.53;;;19.90;99.90;;;;;;5031453;28;20480;-62
2021/06/04 04:20:27;;;;;;;21.20;19.37;;;19.90;99.90;;;;;;5031253;28;20481;-63
2021/06/04 04:22:54;;;;;;;21.13;19.33;;;19.90;99.90;;;;;;5031466;28;20468;-60
2021/06/04 04:25:25;;;;;;;20.47;18.73;;;19.90;99.90;;;;;;5031297;28;20448;-61
2021/06/04 04:27:51;;;;;;;19.23;17.83;;;19.90;99.90;;;;;;5031381;28;20453;-63
2021/06/04 04:30:18;;;;;;;20.33;18.80;;;19.90;99.90;;;;;;5031269;28;20998;-63
2021/06/04 04:32:45;;;;;;;21.23;19.63;;;19.90;99.90;;;;;;5031285;28;20949;-63
2021/06/04 04:35:17;;;;;;;22.20;20.40;;;19.90;99.90;;;;;;5031016;28;20449;-62
2021/06/04 04:37:43;;;;;;;20.77;19.27;;;19.90;99.90;;;;;;5031225;28;20441;-62
2021/06/04 04:40:12;;;;;;;21.30;19.80;;;19.90;99.90;;;;;;5031257;28;20979;-63
2021/06/04 04:42:39;;;;;;;21.43;19.30;;;19.90;99.90;;;;;;5031124;28;20448;-62
2021/06/04 04:45:08;;;;;;;20.27;18.77;;;19.90;99.90;;;;;;5031160;28;20452;-62
2021/06/04 04:47:34;;;;;;;20.70;19.30;;;19.90;99.90;;;;;;5031257;28;20827;-63
2021/06/04 04:50:01;;;;;;;21.27;19.57;;;19.90;99.90;;;;;;5030948;28;20436;-63
2021/06/04 04:52:27;;;;;;;22.27;20.43;;;19.90;99.90;;;;;;5031034;28;20440;-62
2021/06/04 04:54:56;;;;;;;23.63;21.57;;;19.80;99.90;;;;;;5030704;28;20476;-63
2021/06/04 04:57:24;;;;;;;22.37;20.40;;;19.90;99.90;;;;;;5031124;28;20963;-63
2021/06/04 04:59:52;;;;;;;24.83;22.63;;;19.80;99.90;;;;;;5033784;28;20449;-63
2021/06/04 05:02:18;;;;;;;26.17;23.53;;;19.90;99.90;;;;;;5034983;28;20445;-63
2021/06/04 05:04:45;;;;;;;26.57;24.17;;;19.90;99.90;;;;;;5034731;28;20991;-63
2021/06/04 05:07:12;;;;;;;24.17;22.27;;;19.90;99.90;;;;;;5034918;28;20441;-63
2021/06/04 05:09:38;;;;;;;22.53;20.70;;;19.90;99.90;;;;;;5034903;28;20445;-61
2021/06/04 05:12:06;;;;;;;23.43;21.60;;;19.90;99.90;;;;;;5034574;28;20526;-62
2021/06/04 05:14:32;;;;;;;24.77;22.40;;;19.90;99.90;;;;;;5034440;28;20947;-62
2021/06/04 05:17:01;;;;;;;24.07;22.17;;;20.00;99.90;;;;;;5034703;28;20451;-60
2021/06/04 05:19:27;;;;;;;24.27;22.30;;;20.10;99.90;;;;;;5034695;28;20590;-61
2021/06/04 05:21:53;;;;;;;23.47;21.33;;;20.10;99.90;;;;;;5034557;28;20472;-61
2021/06/04 05:24:19;;;;;;;24.60;22.80;;;20.10;99.90;;;;;;5034427;28;20452;-63
2021/06/04 05:26:46;;;;;;;23.37;21.57;;;20.10;99.90;;;;;;5034639;28;20544;-62
2021/06/04 05:29:12;;;;;;;21.80;20.30;;;20.30;99.90;;;;;;5034504;28;20456;-61
2021/06/04 05:31:39;;;;;;;23.27;21.53;;;20.30;99.90;;;;;;5034383;28;20472;-63
2021/06/04 05:34:09;;;;;;;22.80;21.07;;;20.50;99.90;;;;;;5034230;28;20551;-61
2021/06/04 05:36:38;;;;;;;20.73;19.40;;;20.60;99.90;;;;;;5034335;28;20936;-62
2021/06/04 05:39:09;;;;;;;24.10;22.30;;;20.80;99.90;;;;;;5034220;28;20507;-63
2021/06/04 05:41:35;;;;;;;22.80;20.90;;;21.00;99.90;;;;;;5034073;28;21004;-63
2021/06/04 05:44:02;;;;;;;21.73;20.33;;;21.00;99.90;;;;;;5034056;28;20433;-62
2021/06/04 05:46:29;;;;;;;25.50;23.80;;;21.10;99.90;;;;;;5034206;28;20453;-62
2021/06/04 05:48:55;;;;;;;23.87;22.07;;;21.20;99.90;;;;;;5034057;28;20972;-62
2021/06/04 05:51:27;;;;;;;24.37;22.70;;;21.20;99.90;;;;;;5033937;28;20473;-63
2021/06/04 05:53:53;;;;;;;24.93;23.13;;;21.30;99.90;;;;;;5033737;28;20477;-63
2021/06/04 05:56:21;;;;;;;24.97;23.07;;;21.40;99.90;;;;;;5033932;28;20453;-62
2021/06/04 05:58:48;;;;;;;24.37;22.77;;;21.60;99.90;;;;;;5034120;28;20506;-63
2021/06/04 06:01:26;;;;;;;26.00;24.50;;;21.80;99.90;;;;;;5033755;28;20842;-63
2021/06/04 06:03:52;;;;;;;23.50;21.87;;;22.00;99.90;;;;;;5033721;28;20448;-61
2021/06/04 06:06:19;;;;;;;23.70;22.20;;;22.30;99.90;;;;;;5033879;28;20441;-63
2021/06/04 06:08:47;;;;;;;25.97;24.47;;;22.50;99.90;;;;;;5033956;28;20472;-64
2021/06/04 06:11:15;;;;;;;22.93;21.53;;;22.80;99.90;;;;;;5033621;28;20461;-64
2021/06/04 06:13:42;;;;;;;24.77;23.23;;;22.90;99.90;;;;;;5033444;28;20487;-63
2021/06/04 06:16:09;;;;;;;27.33;25.53;;;23.10;99.90;;;;;;5033720;28;20444;-63
2021/06/04 06:18:35;;;;;;;27.17;25.57;;;23.20;99.90;;;;;;5033520;28;20449;-63
2021/06/04 06:21:02;;;;;;;26.00;24.40;;;23.20;99.90;;;;;;5033794;28;20488;-65
2021/06/04 06:23:31;;;;;;;25.47;23.97;;;23.10;99.90;;;;;;5033652;28;20448;-64
2021/06/04 06:26:01;;;;;;;25.43;23.93;;;23.00;99.90;;;;;;5033516;28;20448;-65
2021/06/04 06:28:33;;;;;;;26.20;24.50;;;22.90;99.90;;;;;;5033843;28;20445;-65
2021/06/04 06:31:00;;;;;;;28.37;26.07;;;22.90;99.90;;;;;;5033685;28;20465;-65
2021/06/04 06:33:26;;;;;;;27.23;25.47;;;22.90;99.90;;;;;;5033616;28;20484;-65
2021/06/04 06:35:55;;;;;;;26.53;25.00;;;22.90;99.90;;;;;;5033494;28;20453;-64
2021/06/04 06:38:23;;;;;;;25.83;24.33;;;23.00;99.90;;;;;;5033266;28;20449;-64
2021/06/04 06:40:49;;;;;;;28.70;27.00;;;23.00;99.90;;;;;;5033195;28;20460;-64
2021/06/04 06:43:17;;;;;;;26.93;25.20;;;22.90;99.90;;;;;;5033092;28;20812;-65
2021/06/04 06:45:44;;;;;;;27.43;25.63;;;22.90;99.90;;;;;;5032974;28;20445;-64
2021/06/04 06:48:11;;;;;;;25.63;24.13;;;22.90;99.90;;;;;;5033289;28;20506;-65
2021/06/04 06:50:39;;;;;;;28.23;26.40;;;22.80;99.90;;;;;;5033057;28;20473;-63
2021/06/04 06:53:09;;;;;;;30.53;28.53;;;22.80;99.90;;;;;;5032865;28;20865;-65
2021/06/04 06:55:36;;;;;;;28.17;26.27;;;22.80;99.90;;;;;;5032720;28;20453;-65
2021/06/04 06:58:04;;;;;;;28.30;26.37;;;22.80;99.90;;;;;;5032843;28;20819;-65
2021/06/04 07:00:35;;;;;;;28.47;26.77;;;22.80;99.90;;;;;;5032785;28;20468;-65
2021/06/04 07:03:01;;;;;;;30.37;28.27;;;22.80;99.90;;;;;;5032655;28;20452;-65
2021/06/04 07:05:29;;;;;;;32.10;30.13;;;23.00;99.90;;;;;;5032696;28;20437;-65
2021/06/04 07:07:56;;;;;;;29.07;27.27;;;23.20;99.90;;;;;;5032755;28;20445;-65
2021/06/04 07:10:25;;;;;;;29.97;27.77;;;23.40;99.90;;;;;;5032424;28;20476;-63
2021/06/04 07:12:51;;;;;;;28.90;26.80;;;23.50;99.90;;;;;;5032549;28;20477;-65
2021/06/04 07:15:20;;;;;;;28.07;25.90;;;23.60;99.90;;;;;;5032333;28;21012;-65
2021/06/04 07:17:48;;;;;;;28.50;26.80;;;23.50;99.90;;;;;;5032513;28;20461;-64
2021/06/04 07:20:17;;;;;;;29.10;27.30;;;23.50;99.90;;;;;;5032323;28;20848;-64
2021/06/04 07:22:44;;;;;;;29.90;28.20;;;23.50;99.90;;;;;;5031816;28;20445;-64
2021/06/04 07:25:14;;;;;;;30.07;28.17;;;23.70;99.90;;;;;;5032344;28;20440;-65
2021/06/04 07:27:41;;;;;;;31.70;29.10;;;23.90;99.90;;;;;;5032226;28;20442;-64
2021/06/04 07:30:10;;;;;;;29.43;27.57;;;23.90;99.90;;;;;;5032225;28;20469;-64
2021/06/04 07:32:37;;;;;;;29.77;27.97;;;24.00;99.90;;;;;;5032251;28;20840;-65
2021/06/04 07:35:06;;;;;;;32.47;30.27;;;24.20;99.90;;;;;;5031924;28;20538;-64
2021/06/04 07:37:32;;;;;;;32.87;30.57;;;24.30;99.90;;;;;;5032127;28;20801;-64
2021/06/04 07:39:58;;;;;;;36.60;34.10;;;24.40;99.90;;;;;;5031849;28;20445;-64
2021/06/04 07:42:24;;;;;;;33.07;30.90;;;24.50;99.90;;;;;;5032031;28;20453;-64
2021/06/04 07:44:50;;;;;;;33.13;30.83;;;24.50;99.90;;;;;;5031699;28;20440;-64
2021/06/04 07:47:17;;;;;;;32.50;30.40;;;24.70;99.90;;;;;;5032064;28;20441;-64
2021/06/04 07:49:43;;;;;;;30.77;28.93;;;25.00;99.90;;;;;;5031865;28;20456;-65
2021/06/04 07:52:10;;;;;;;35.50;33.13;;;25.00;99.90;;;;;;5031834;28;20977;-65
2021/06/04 07:54:37;;;;;;;33.57;31.50;;;25.30;99.90;;;;;;5031607;28;20484;-65
2021/06/04 07:57:04;;;;;;;34.10;31.77;;;25.50;99.90;;;;;;5031896;28;20812;-65
2021/06/04 07:59:30;;;;;;;31.73;29.73;;;25.50;99.90;;;;;;5031838;28;20449;-64
2021/06/04 08:01:57;;;;;;;34.57;32.17;;;25.80;99.90;;;;;;5031734;28;20854;-65
2021/06/04 08:04:23;;;;;;;31.10;29.20;;;26.10;99.90;;;;;;5031683;28;20809;-65
2021/06/04 08:06:51;;;;;;;31.37;29.37;;;26.20;99.90;;;;;;5031636;28;20456;-65
2021/06/04 08:09:19;;;;;;;30.20;28.20;;;26.10;99.90;;;;;;5031512;28;20455;-64
2021/06/04 08:11:48;;;;;;;33.07;31.00;;;26.00;99.90;;;;;;5031477;28;20505;-63
2021/06/04 08:14:18;;;;;;;31.27;29.37;;;26.30;99.90;;;;;;5031348;28;20481;-63
2021/06/04 08:16:46;;;;;;;31.03;29.23;;;26.60;99.90;;;;;;5031562;28;20456;-64
2021/06/04 08:19:15;;;;;;;33.23;31.07;;;26.70;99.90;;;;;;5031442;28;20820;-64
2021/06/04 08:21:44;;;;;;;34.10;32.00;;;26.40;99.90;;;;;;5030985;28;20485;-64
2021/06/04 08:24:13;;;;;;;31.83;30.03;;;26.40;99.90;;;;;;5031233;28;20445;-64
2021/06/04 08:26:41;;;;;;;33.03;30.90;;;26.40;99.90;;;;;;5031181;28;20445;-63
2021/06/04 08:29:09;;;;;;;32.70;30.47;;;26.60;99.90;;;;;;5031414;28;20448;-65
2021/06/04 08:31:36;;;;;;;31.00;29.23;;;26.70;99.90;;;;;;5031165;28;20535;-63
2021/06/04 08:34:03;;;;;;;33.77;31.70;;;26.80;99.90;;;;;;5029845;28;20481;-64
2021/06/04 08:36:32;;;;;;;34.77;32.40;;;26.80;99.90;;;;;;5031303;28;20441;-65
2021/06/04 08:39:00;;;;;;;33.60;31.50;;;26.80;99.90;;;;;;5031236;28;20456;-65
2021/06/04 08:41:37;;;;;;;33.60;31.37;;;26.80;99.90;;;;;;5030897;28;20560;-64
2021/06/04 08:44:32;;;;;;;35.63;33.43;;;27.00;99.90;;;;;;5030726;28;20448;-64
2021/06/04 08:47:02;;;;;;;37.87;35.30;;;26.90;99.90;;;;;;5029191;28;20499;-63
2021/06/04 08:49:38;;;;;;;39.37;36.80;;;26.80;99.90;;;;;;5030992;28;20823;-64
2021/06/04 08:52:17;;;;;;;43.30;40.27;;;26.60;99.90;;;;;;5030801;28;20457;-64
2021/06/04 08:54:48;;;;;;;39.07;36.13;;;26.50;99.90;;;;;;5030882;28;20480;-64
2021/06/04 08:57:38;;;;;;;40.00;37.13;;;26.60;99.90;;;;;;5031036;28;20790;-64
2021/06/04 09:00:09;;;;;;;37.40;34.87;;;26.40;99.90;;;;;;5030922;28;20441;-64
2021/06/04 09:02:39;;;;;;;37.67;35.30;;;26.60;99.90;;;;;;5030959;28;20771;-63
2021/06/04 09:05:12;;;;;;;39.67;36.87;;;26.90;99.90;;;;;;5030655;28;20959;-64
2021/06/04 09:07:43;;;;;;;39.60;36.70;;;26.80;99.90;;;;;;5030917;28;20445;-65
2021/06/04 09:10:14;;;;;;;41.00;37.90;;;27.10;99.90;;;;;;5030872;28;20465;-63
2021/06/04 09:12:45;;;;;;;41.87;38.87;;;27.20;99.30;;;;;;5031177;28;20445;-65
2021/06/04 09:15:16;;;;;;;42.10;38.80;;;27.10;98.70;;;;;;5031032;28;20481;-64
2021/06/04 09:17:50;;;;;;;45.10;41.90;;;27.10;98.90;;;;;;5031089;28;20448;-64
2021/06/04 09:20:29;;;;;;;46.43;43.10;;;27.10;97.40;;;;;;5030913;28;20488;-65
2021/06/04 09:23:00;;;;;;;43.77;40.67;;;27.10;97.60;;;;;;5030857;28;20445;-65
2021/06/04 09:25:28;;;;;;;46.60;43.27;;;27.30;97.50;;;;;;5030879;28;20441;-65
2021/06/04 09:28:17;;;;;;;46.53;43.30;;;27.10;96.50;;;;;;5030902;28;20449;-63
2021/06/04 09:30:47;;;;;;;45.93;42.73;;;27.40;97.30;;;;;;5030696;28;20467;-65
2021/06/04 09:33:23;;;;;;;44.40;41.07;;;27.50;95.80;;;;;;5030698;28;20495;-64
2021/06/04 09:36:07;;;;;;;40.83;38.03;;;27.90;95.50;;;;;;5030622;28;20468;-65
2021/06/04 09:38:41;;;;;;;41.73;38.93;;;28.20;94.90;;;;;;5030774;28;20467;-63
2021/06/04 09:41:20;;;;;;;46.30;42.97;;;28.20;92.30;;;;;;5030606;28;20472;-65
2021/06/04 09:43:49;;;;;;;46.20;43.00;;;28.60;92.10;;;;;;5030572;28;20437;-64
2021/06/04 09:46:29;;;;;;;42.80;40.00;;;28.50;90.80;;;;;;5033591;28;20433;-64
2021/06/04 09:48:57;;;;;;;47.50;43.80;;;28.70;91.50;;;;;;5033952;28;20441;-65
2021/06/04 09:51:25;;;;;;;46.07;42.47;;;28.30;89.80;;;;;;5034047;28;20456;-64
2021/06/04 09:53:54;;;;;;;42.03;39.00;;;28.30;90.60;;;;;;5033847;28;20485;-62
2021/06/04 09:56:29;;;;;;;43.77;40.77;;;28.50;89.70;;;;;;5033656;28;20464;-64
2021/06/04 09:58:58;;;;;;;43.17;40.27;;;28.60;88.00;;;;;;5034282;28;20445;-64
2021/06/04 10:01:27;;;;;;;44.23;41.20;;;28.70;88.80;;;;;;5034050;28;20477;-64
2021/06/04 10:03:57;;;;;;;43.17;40.17;;;28.70;86.10;;;;;;5034087;28;20449;-63
2021/06/04 10:06:40;;;;;;;41.10;38.17;;;28.70;83.10;;;;;;5034239;28;20800;-65
2021/06/04 10:09:23;;;;;;;39.57;37.07;;;28.80;83.30;;;;;;5034000;28;20480;-65
2021/06/04 10:12:03;;;;;;;37.33;35.10;;;29.10;82.80;;;;;;5033822;28;20464;-64
2021/06/04 10:14:44;;;;;;;38.73;35.97;;;29.40;80.40;;;;;;5033713;28;20480;-65
2021/06/04 10:17:39;;;;;;;36.10;33.33;;;29.80;79.50;;;;;;5033871;28;20453;-64
2021/06/04 10:20:34;;;;;;;34.00;31.90;;;30.30;77.60;;;;;;5033630;28;20444;-65
2021/06/04 10:23:09;;;;;;;42.37;39.77;;;30.70;72.90;;;;;;5033636;28;20445;-64
2021/06/04 10:25:42;;;;;;;38.50;36.20;;;30.60;67.60;;;;;;5033618;28;20486;-64
2021/06/04 10:28:49;;;;;;;36.43;34.23;;;31.00;65.80;;;;;;5033340;28;20453;-63
2021/06/04 10:31:40;;;;;;;37.10;34.67;;;30.80;66.60;;;;;;5032935;28;20472;-63
2021/06/04 10:34:40;;;;;;;36.00;33.50;;;31.20;64.70;;;;;;5029201;28;20507;-63
2021/06/04 10:37:14;;;;;;;37.10;34.80;;;31.50;64.20;;;;;;5019315;28;20483;-62
2021/06/04 10:39:44;;;;;;;36.97;34.27;;;31.40;61.10;;;;;;5033178;28;20459;-63
2021/06/04 10:42:20;;;;;;;36.90;34.53;;;32.10;59.50;;;;;;5033003;28;20471;-62
2021/06/04 10:44:54;;;;;;;37.67;35.37;;;32.30;58.90;;;;;;5032823;28;20448;-62
2021/06/04 10:47:32;;;;;;;34.43;32.13;;;32.80;56.90;;;;;;5032848;28;20470;-62
2021/06/04 10:50:12;;;;;;;38.37;36.20;;;32.30;58.20;;;;;;5032907;28;20444;-63
2021/06/04 10:52:59;;;;;;;37.87;35.30;;;32.20;56.60;;;;;;5032700;28;20436;-61
2021/06/04 10:55:29;;;;;;;37.57;35.37;;;32.50;55.70;;;;;;5032531;28;20503;-62
2021/06/04 10:58:03;;;;;;;40.17;37.70;;;32.30;54.40;;;;;;5032311;28;20526;-62
2021/06/04 11:00:36;;;;;;;36.50;34.47;;;33.30;54.00;;;;;;5032882;28;20977;-62
2021/06/04 11:03:08;;;;;;;35.40;33.40;;;33.80;53.80;;;;;;5032587;28;20441;-62
2021/06/04 11:05:51;;;;;;;34.90;32.97;;;33.50;52.00;;;;;;5032495;28;20436;-62
2021/06/04 11:08:39;;;;;;;34.47;32.07;;;33.00;51.30;;;;;;5032416;28;20463;-63
2021/06/04 11:11:15;;;;;;;34.37;32.47;;;32.90;52.70;;;;;;5030042;28;20476;-62
2021/06/04 11:13:55;;;;;;;32.53;30.80;;;33.10;51.40;;;;;;5032574;28;20451;-62
2021/06/04 11:16:31;;;;;;;35.80;33.60;;;33.50;50.40;;;;;;5032423;28;20448;-63
2021/06/04 11:19:03;;;;;;;34.07;31.87;;;33.00;49.60;;;;;;5032617;28;20449;-64
2021/06/04 11:21:34;;;;;;;32.43;30.60;;;33.50;50.80;;;;;;5032333;28;20476;-64
2021/06/04 11:24:05;;;;;;;36.77;34.77;;;34.20;50.10;;;;;;5032505;28;20444;-62
2021/06/04 11:26:37;;;;;;;34.97;32.87;;;34.10;49.10;;;;;;5032355;28;20444;-62
2021/06/04 11:29:06;;;;;;;32.40;30.70;;;34.30;49.50;;;;;;5032481;28;20440;-62
2021/06/04 11:31:56;;;;;;;37.95;35.75;;;35.50;48.50;;;;;;5032005;28;20226;-61
2021/06/04 11:34:43;;;;;;;36.42;34.17;;;36.40;45.50;;;;;;5032026;28;20233;-63
2021/06/04 11:37:12;;;;;;;33.97;31.98;;;38.10;44.10;;;;;;5032205;28;20597;-62
2021/06/04 11:39:43;;;;;;;33.55;31.77;;;40.50;41.10;;;;;;5032189;28;20206;-64
2021/06/04 11:42:12;;;;;;;33.50;31.80;;;41.20;39.00;;;;;;5031935;28;20276;-64
2021/06/04 11:44:43;;;;;;;32.78;31.05;;;42.10;36.40;;;;;;5031935;28;20202;-64
2021/06/04 11:47:29;;;;;;;33.85;32.15;;;43.20;34.80;;;;;;5032457;28;20264;-63
2021/06/04 11:50:23;;;;;;;33.22;31.63;;;43.40;32.00;;;;;;5031976;28;20208;-64
2021/06/04 11:52:53;;;;;;;33.75;31.95;;;41.50;33.60;;;;;;5032200;28;20255;-63
2021/06/04 11:55:35;;;;;;;35.33;33.53;;;39.70;34.70;;;;;;5031755;28;20222;-62
2021/06/04 11:58:06;;;;;;;32.95;31.27;;;37.50;36.80;;;;;;5031909;28;20263;-61
2021/06/04 12:00:42;;;;;;;34.30;32.50;;;37.10;38.80;;;;;;5031852;28;20229;-63
2021/06/04 12:03:31;;;;;;;32.15;30.30;;;37.70;37.40;;;;;;5031882;28;20197;-62
2021/06/04 12:06:18;;;;;;;33.95;32.15;;;36.90;39.20;;;;;;5031671;28;20202;-63
2021/06/04 12:08:46;;;;;;;34.05;31.85;;;36.50;39.90;;;;;;5031713;28;20240;-63
2021/06/04 12:11:29;;;;;;;33.90;32.03;;;37.30;39.70;;;;;;5031704;28;20229;-64
2021/06/04 12:14:19;;;;;;;33.53;31.73;;;40.90;37.00;;;;;;5031865;28;20642;-63
2021/06/04 12:16:47;;;;;;;34.63;32.72;;;42.40;33.50;;;;;;5031777;28;20566;-62
2021/06/04 12:19:34;;;;;;;32.15;30.58;;;43.00;31.90;;;;;;5031608;28;20682;-64
2021/06/04 12:22:08;;;;;;;33.10;31.50;;;43.50;30.60;;;;;;5031479;28;20229;-58
2021/06/04 12:25:01;;;;;;;33.25;31.45;;;45.40;29.40;;;;;;5031210;28;20269;-59
2021/06/04 12:28:06;;;;;;;31.58;30.02;;;47.90;27.50;;;;;;5031690;28;20213;-61
2021/06/04 12:30:52;;;;;;;32.88;31.40;;;49.50;25.80;;;;;;5031275;28;20775;-61
2021/06/04 12:33:41;;;;;;;30.25;28.85;;;50.20;24.90;;;;;;5031315;28;20670;-61
2021/06/04 12:36:46;;;;;;;29.23;28.02;;;51.00;24.30;;;;;;5031310;28;20197;-60
2021/06/04 12:39:40;;;;;;;28.02;26.83;;;51.70;23.60;;;;;;5031197;28;20201;-61
2021/06/04 12:42:18;;;;;;;28.27;27.00;;;51.90;23.50;;;;;;5031199;28;20229;-61
2021/06/04 12:44:54;;;;;;;28.85;27.55;;;53.50;22.20;;;;;;5031080;28;20224;-62
2021/06/04 12:47:24;;;;;;;27.92;26.13;;;54.50;21.90;;;;;;5031114;28;20232;-61
2021/06/04 12:49:50;;;;;;;29.00;27.80;;;55.40;21.50;;;;;;5031151;28;20202;-62
2021/06/04 12:52:20;;;;;;;29.30;27.88;;;54.10;21.20;;;;;;5031048;28;20216;-62